Aeroporto :
LOGIN :

Iscrizione | Disclaimer

   EN    FR    IT 

 










Sommario :    VFR   VFR Marginale   IFR   IFR Intensivo   IFR Molto Intensivo
Visibilità : 
Base nubi : 
>= 8 km
>= 3000ft
5 / 8 km
1000 / 3000 ft
1500m / 5 km
500 / 1000 ft
800 / 1500m
200 / 500 ft
< 800m
< 200 ft
Simboli :   Temporali  Nebbia  Neve Forte  Precipitazioni Forti  Vento > 20 kt
SIGMETs :   Varie  Temporali  Ghiacco  Turbolenza  Onda orograficha  Ceneri Vulcaniche






- Altitudine del aeroporto : 1020 ft
- Codice IATA : ILZ


LZZI - Žilina

ULTIMO METAR :
  • 190400Z 15001KT 3200 -SN BR SCT004 OVC029 M00/M01 Q1025

METARs OBSOLETI :
  • 190330Z VRB01KT 2300 -SN BR SCT007 OVC023 M00/M01 Q1025
  • 190300Z VRB01KT 2800 -SN BR SCT007 OVC023 M00/M01 Q1025
  • 190230Z VRB01KT 2500 -SN BR SCT008 OVC022 M00/M01 Q1025
  • 190200Z 29001KT 2500 -SN BR OVC006 M01/M01 Q1025
  • 190130Z 25002KT 2500 -SN BR OVC007 M00/M01 Q1025

TAF TAF LZZI
Valido dal 19 a 03 ore il 19 a 12 ore UTC


190200Z 1903/1912 25002KT 5000 -SN OVC013
BECMG 1903/1905 05005KT
TEMPO 1903/1912 1400 SN BR OVC007



MetMap, La meteo Aeronautica in un colpo d'occhio ! - Copyright ORBIFLY Dicembre 2007 - Disclaimer

ORBIFLY MET'MAP TEAM :

Programmazione e sviluppo : Alexandra Zaïnal
Concezione : Baudouin d'Aumeries
Aiuto per la programmazione : Marc-Olivier Méhu
Supporto tecnico e logistico : Manuel Goepfert
Aiuto per la traduzione : Arnaldo La Scala

Contatto : metmap@orbifly.com




FONTI E CREDITI :

   NOAA